sensor_id;sensor_type;location;lat;lon;timestamp;pressure;altitude;pressure_sealevel;temperature;humidity
71149;BME280;59072;42.144;25.200;2023-02-12T00:01:39;101131.59;;;-3.06;60.46
71149;BME280;59072;42.144;25.200;2023-02-12T00:04:04;101129.59;;;-3.15;59.20
71149;BME280;59072;42.144;25.200;2023-02-12T00:06:30;101127.53;;;-3.10;60.06
71149;BME280;59072;42.144;25.200;2023-02-12T00:08:56;101130.94;;;-3.10;60.81
71149;BME280;59072;42.144;25.200;2023-02-12T00:11:24;101105.59;;;-3.20;60.91
71149;BME280;59072;42.144;25.200;2023-02-12T00:13:53;101122.81;;;-3.05;61.50
71149;BME280;59072;42.144;25.200;2023-02-12T00:16:23;101098.38;;;-3.30;60.96
71149;BME280;59072;42.144;25.200;2023-02-12T00:18:54;101122.41;;;-3.25;61.16
71149;BME280;59072;42.144;25.200;2023-02-12T00:21:21;101113.00;;;-3.01;59.70
71149;BME280;59072;42.144;25.200;2023-02-12T00:23:46;101107.34;;;-3.34;60.56
71149;BME280;59072;42.144;25.200;2023-02-12T00:26:14;101122.19;;;-2.96;59.93
71149;BME280;59072;42.144;25.200;2023-02-12T00:28:40;101092.13;;;-3.53;61.85
71149;BME280;59072;42.144;25.200;2023-02-12T00:31:14;101110.88;;;-3.48;62.28
71149;BME280;59072;42.144;25.200;2023-02-12T00:33:40;101089.13;;;-3.87;63.93
71149;BME280;59072;42.144;25.200;2023-02-12T00:36:07;101092.72;;;-4.02;64.71
71149;BME280;59072;42.144;25.200;2023-02-12T00:38:33;101115.88;;;-3.57;63.75
71149;BME280;59072;42.144;25.200;2023-02-12T00:40:59;101114.03;;;-3.42;62.92
71149;BME280;59072;42.144;25.200;2023-02-12T00:43:27;101114.66;;;-3.26;62.23
71149;BME280;59072;42.144;25.200;2023-02-12T00:45:53;101083.56;;;-3.29;61.35
71149;BME280;59072;42.144;25.200;2023-02-12T00:48:18;101101.50;;;-3.50;62.92
71149;BME280;59072;42.144;25.200;2023-02-12T00:50:45;101098.97;;;-3.65;64.78
71149;BME280;59072;42.144;25.200;2023-02-12T00:53:12;101074.91;;;-3.55;64.01
71149;BME280;59072;42.144;25.200;2023-02-12T00:55:37;101065.31;;;-3.16;61.76
71149;BME280;59072;42.144;25.200;2023-02-12T00:58:02;101103.78;;;-2.94;60.80
71149;BME280;59072;42.144;25.200;2023-02-12T01:00:28;101071.63;;;-2.95;61.48
71149;BME280;59072;42.144;25.200;2023-02-12T01:02:53;101092.06;;;-2.63;59.57
71149;BME280;59072;42.144;25.200;2023-02-12T01:05:21;101086.44;;;-2.83;59.85
71149;BME280;59072;42.144;25.200;2023-02-12T01:07:50;101046.03;;;-3.27;61.52
71149;BME280;59072;42.144;25.200;2023-02-12T01:10:17;101051.13;;;-3.38;61.38
71149;BME280;59072;42.144;25.200;2023-02-12T01:12:42;101056.88;;;-3.33;60.95
71149;BME280;59072;42.144;25.200;2023-02-12T01:15:08;101039.53;;;-3.34;61.04
71149;BME280;59072;42.144;25.200;2023-02-12T01:17:37;101077.25;;;-2.75;60.00
71149;BME280;59072;42.144;25.200;2023-02-12T01:20:04;101082.53;;;-3.14;61.11
71149;BME280;59072;42.144;25.200;2023-02-12T01:22:32;101082.94;;;-3.07;61.70
71149;BME280;59072;42.144;25.200;2023-02-12T01:24:58;101055.50;;;-3.51;62.66
71149;BME280;59072;42.144;25.200;2023-02-12T01:27:23;101060.41;;;-3.59;63.43
71149;BME280;59072;42.144;25.200;2023-02-12T01:29:48;101042.25;;;-3.48;63.10
71149;BME280;59072;42.144;25.200;2023-02-12T01:32:14;101061.97;;;-3.70;64.15
71149;BME280;59072;42.144;25.200;2023-02-12T01:34:39;101070.84;;;-3.59;64.27
71149;BME280;59072;42.144;25.200;2023-02-12T01:37:05;101057.47;;;-3.55;63.97
71149;BME280;59072;42.144;25.200;2023-02-12T01:39:30;101027.00;;;-3.80;64.19
71149;BME280;59072;42.144;25.200;2023-02-12T01:41:55;101055.78;;;-3.69;63.78
71149;BME280;59072;42.144;25.200;2023-02-12T01:44:28;101036.00;;;-3.71;63.50
71149;BME280;59072;42.144;25.200;2023-02-12T01:46:58;101026.38;;;-3.71;63.09
71149;BME280;59072;42.144;25.200;2023-02-12T01:52:23;101053.72;;;-3.38;63.43
71149;BME280;59072;42.144;25.200;2023-02-12T01:54:51;101040.69;;;-3.38;63.35
71149;BME280;59072;42.144;25.200;2023-02-12T01:57:17;101051.22;;;-3.14;62.38
71149;BME280;59072;42.144;25.200;2023-02-12T01:59:44;101044.75;;;-3.08;61.79
71149;BME280;59072;42.144;25.200;2023-02-12T02:02:14;101029.53;;;-3.40;61.99
71149;BME280;59072;42.144;25.200;2023-02-12T02:04:43;101046.94;;;-3.40;61.83
71149;BME280;59072;42.144;25.200;2023-02-12T02:07:11;101044.03;;;-3.36;61.22
71149;BME280;59072;42.144;25.200;2023-02-12T02:09:40;101022.63;;;-3.67;61.02
71149;BME280;59072;42.144;25.200;2023-02-12T02:12:06;101037.88;;;-3.48;61.18
71149;BME280;59072;42.144;25.200;2023-02-12T02:14:53;101048.94;;;-3.70;61.42
71149;BME280;59072;42.144;25.200;2023-02-12T02:31:39;101044.19;;;-4.30;65.60
71149;BME280;59072;42.144;25.200;2023-02-12T02:39:42;101067.22;;;-4.24;66.28
71149;BME280;59072;42.144;25.200;2023-02-12T02:42:20;101066.53;;;-4.13;66.03
71149;BME280;59072;42.144;25.200;2023-02-12T02:44:51;101070.53;;;-3.95;64.82
71149;BME280;59072;42.144;25.200;2023-02-12T02:47:20;101043.97;;;-3.87;64.38
71149;BME280;59072;42.144;25.200;2023-02-12T02:50:02;101058.56;;;-3.85;65.00
71149;BME280;59072;42.144;25.200;2023-02-12T02:52:40;101058.72;;;-3.60;64.56
71149;BME280;59072;42.144;25.200;2023-02-12T02:55:07;101059.69;;;-4.01;65.84
71149;BME280;59072;42.144;25.200;2023-02-12T02:57:40;101043.06;;;-3.86;65.81
71149;BME280;59072;42.144;25.200;2023-02-12T03:00:20;101046.41;;;-3.84;65.53
71149;BME280;59072;42.144;25.200;2023-02-12T03:02:50;101007.59;;;-3.89;65.67
71149;BME280;59072;42.144;25.200;2023-02-12T03:05:34;101052.69;;;-3.74;66.12
71149;BME280;59072;42.144;25.200;2023-02-12T03:08:11;101059.88;;;-3.65;66.01
71149;BME280;59072;42.144;25.200;2023-02-12T03:10:44;101060.16;;;-3.82;66.57
71149;BME280;59072;42.144;25.200;2023-02-12T03:16:32;101039.28;;;-3.95;67.08
71149;BME280;59072;42.144;25.200;2023-02-12T03:19:26;101054.72;;;-3.79;67.15
71149;BME280;59072;42.144;25.200;2023-02-12T03:22:09;101054.97;;;-3.56;65.37
71149;BME280;59072;42.144;25.200;2023-02-12T03:24:42;101047.25;;;-3.71;65.98
71149;BME280;59072;42.144;25.200;2023-02-12T03:27:15;101040.38;;;-3.72;66.14
71149;BME280;59072;42.144;25.200;2023-02-12T03:29:44;101042.03;;;-3.71;65.75
71149;BME280;59072;42.144;25.200;2023-02-12T03:35:11;101043.94;;;-3.47;65.07
71149;BME280;59072;42.144;25.200;2023-02-12T03:38:02;101044.75;;;-3.59;65.85
71149;BME280;59072;42.144;25.200;2023-02-12T03:40:35;101047.25;;;-3.32;65.24
71149;BME280;59072;42.144;25.200;2023-02-12T03:43:06;101050.81;;;-3.59;66.46
71149;BME280;59072;42.144;25.200;2023-02-12T03:45:48;101047.78;;;-3.66;67.60
71149;BME280;59072;42.144;25.200;2023-02-12T03:48:22;101039.00;;;-3.65;67.47
71149;BME280;59072;42.144;25.200;2023-02-12T03:51:31;101043.72;;;-3.70;68.09
71149;BME280;59072;42.144;25.200;2023-02-12T03:53:37;101005.31;;;-3.93;67.71
71149;BME280;59072;42.144;25.200;2023-02-12T03:56:12;101019.63;;;-4.26;69.08
71149;BME280;59072;42.144;25.200;2023-02-12T03:58:41;101033.38;;;-4.24;69.19
71149;BME280;59072;42.144;25.200;2023-02-12T04:01:07;101021.97;;;-3.96;68.16
71149;BME280;59072;42.144;25.200;2023-02-12T04:03:32;101020.34;;;-3.84;67.34
71149;BME280;59072;42.144;25.200;2023-02-12T04:05:58;101004.44;;;-4.07;67.23
71149;BME280;59072;42.144;25.200;2023-02-12T04:08:24;101027.63;;;-3.76;67.21
71149;BME280;59072;42.144;25.200;2023-02-12T04:13:58;101035.06;;;-3.57;66.90
71149;BME280;59072;42.144;25.200;2023-02-12T04:16:51;101038.72;;;-3.34;66.36
71149;BME280;59072;42.144;25.200;2023-02-12T04:19:33;101023.25;;;-3.37;65.95
71149;BME280;59072;42.144;25.200;2023-02-12T04:27:25;101031.81;;;-3.22;65.77
71149;BME280;59072;42.144;25.200;2023-02-12T04:33:02;101021.19;;;-3.45;65.70
71149;BME280;59072;42.144;25.200;2023-02-12T04:38:09;101040.47;;;-3.60;66.97
71149;BME280;59072;42.144;25.200;2023-02-12T04:40:37;101050.59;;;-3.43;66.56
71149;BME280;59072;42.144;25.200;2023-02-12T04:43:03;101025.56;;;-3.33;65.54
71149;BME280;59072;42.144;25.200;2023-02-12T04:45:31;101030.56;;;-3.42;65.24
71149;BME280;59072;42.144;25.200;2023-02-12T04:48:07;101035.56;;;-3.14;64.83
71149;BME280;59072;42.144;25.200;2023-02-12T04:50:42;101028.25;;;-3.21;65.50
71149;BME280;59072;42.144;25.200;2023-02-12T04:53:10;101024.09;;;-3.37;65.54
71149;BME280;59072;42.144;25.200;2023-02-12T04:55:35;101043.28;;;-3.12;64.78
71149;BME280;59072;42.144;25.200;2023-02-12T04:58:01;101058.00;;;-3.11;65.22
71149;BME280;59072;42.144;25.200;2023-02-12T05:00:27;101022.50;;;-3.14;64.85
71149;BME280;59072;42.144;25.200;2023-02-12T05:02:55;101056.94;;;-2.96;64.82
71149;BME280;59072;42.144;25.200;2023-02-12T05:05:20;101060.16;;;-2.79;64.67
71149;BME280;59072;42.144;25.200;2023-02-12T05:07:48;101060.03;;;-2.91;64.95
71149;BME280;59072;42.144;25.200;2023-02-12T05:10:14;101059.94;;;-2.89;65.71
71149;BME280;59072;42.144;25.200;2023-02-12T05:12:42;101065.84;;;-3.24;66.43
71149;BME280;59072;42.144;25.200;2023-02-12T05:15:08;101048.31;;;-3.35;66.36
71149;BME280;59072;42.144;25.200;2023-02-12T05:17:34;101058.22;;;-3.40;67.42
71149;BME280;59072;42.144;25.200;2023-02-12T05:19:59;101080.13;;;-3.30;67.25
71149;BME280;59072;42.144;25.200;2023-02-12T05:22:27;101066.34;;;-3.32;66.58
71149;BME280;59072;42.144;25.200;2023-02-12T05:24:52;101086.47;;;-3.47;68.60
71149;BME280;59072;42.144;25.200;2023-02-12T05:27:17;101089.91;;;-3.33;68.33
71149;BME280;59072;42.144;25.200;2023-02-12T05:29:43;101094.84;;;-3.16;68.32
71149;BME280;59072;42.144;25.200;2023-02-12T05:32:09;101100.75;;;-2.88;65.46
71149;BME280;59072;42.144;25.200;2023-02-12T05:34:36;101102.94;;;-2.82;65.07
71149;BME280;59072;42.144;25.200;2023-02-12T05:37:02;101089.91;;;-2.95;66.23
71149;BME280;59072;42.144;25.200;2023-02-12T05:39:27;101106.31;;;-3.18;67.78
71149;BME280;59072;42.144;25.200;2023-02-12T05:41:53;101111.75;;;-3.21;67.08
71149;BME280;59072;42.144;25.200;2023-02-12T05:44:18;101102.44;;;-3.26;67.65
71149;BME280;59072;42.144;25.200;2023-02-12T05:46:43;101107.44;;;-2.97;66.30
71149;BME280;59072;42.144;25.200;2023-02-12T05:49:09;101129.28;;;-2.85;65.71
71149;BME280;59072;42.144;25.200;2023-02-12T05:51:36;101124.25;;;-2.75;65.92
71149;BME280;59072;42.144;25.200;2023-02-12T05:54:04;101119.94;;;-2.64;65.22
71149;BME280;59072;42.144;25.200;2023-02-12T05:56:34;101138.75;;;-2.58;65.90
71149;BME280;59072;42.144;25.200;2023-02-12T05:59:06;101114.19;;;-2.56;64.30
71149;BME280;59072;42.144;25.200;2023-02-12T06:01:38;101128.38;;;-2.47;65.07
71149;BME280;59072;42.144;25.200;2023-02-12T06:04:06;101138.97;;;-2.25;64.09
71149;BME280;59072;42.144;25.200;2023-02-12T06:06:32;101123.47;;;-2.15;64.14
71149;BME280;59072;42.144;25.200;2023-02-12T06:08:59;101120.13;;;-2.17;63.98
71149;BME280;59072;42.144;25.200;2023-02-12T06:11:25;101131.19;;;-2.13;64.05
71149;BME280;59072;42.144;25.200;2023-02-12T06:13:50;101123.00;;;-2.09;63.06
71149;BME280;59072;42.144;25.200;2023-02-12T06:16:23;101135.09;;;-1.95;63.27
71149;BME280;59072;42.144;25.200;2023-02-12T06:18:49;101137.25;;;-1.89;63.46
71149;BME280;59072;42.144;25.200;2023-02-12T06:21:17;101137.63;;;-1.82;65.16
71149;BME280;59072;42.144;25.200;2023-02-12T06:23:42;101125.56;;;-1.72;63.83
71149;BME280;59072;42.144;25.200;2023-02-12T06:26:08;101127.25;;;-1.71;63.48
71149;BME280;59072;42.144;25.200;2023-02-12T06:28:34;101144.03;;;-1.27;62.56
71149;BME280;59072;42.144;25.200;2023-02-12T06:30:59;101139.13;;;-1.31;62.80
71149;BME280;59072;42.144;25.200;2023-02-12T06:33:27;101147.84;;;-1.19;62.78
71149;BME280;59072;42.144;25.200;2023-02-12T06:35:56;101146.34;;;-0.88;62.32
71149;BME280;59072;42.144;25.200;2023-02-12T06:38:21;101125.03;;;-0.95;62.40
71149;BME280;59072;42.144;25.200;2023-02-12T06:40:47;101121.81;;;-0.87;63.06
71149;BME280;59072;42.144;25.200;2023-02-12T06:43:13;101134.78;;;-0.74;63.36
71149;BME280;59072;42.144;25.200;2023-02-12T06:45:38;101142.66;;;-0.63;63.20
71149;BME280;59072;42.144;25.200;2023-02-12T06:48:04;101130.75;;;-0.56;63.03
71149;BME280;59072;42.144;25.200;2023-02-12T06:50:29;101127.75;;;-0.51;64.24
71149;BME280;59072;42.144;25.200;2023-02-12T06:52:57;101131.19;;;-0.39;63.30
71149;BME280;59072;42.144;25.200;2023-02-12T06:55:23;101137.63;;;-0.32;62.78
71149;BME280;59072;42.144;25.200;2023-02-12T06:57:48;101153.31;;;-0.10;62.90
71149;BME280;59072;42.144;25.200;2023-02-12T07:00:14;101131.53;;;-0.33;64.16
71149;BME280;59072;42.144;25.200;2023-02-12T07:02:39;101125.69;;;-0.14;62.48
71149;BME280;59072;42.144;25.200;2023-02-12T07:05:05;101147.50;;;0.19;61.84
71149;BME280;59072;42.144;25.200;2023-02-12T07:07:30;101117.88;;;0.28;60.60
71149;BME280;59072;42.144;25.200;2023-02-12T07:09:58;101135.22;;;0.52;60.65
71149;BME280;59072;42.144;25.200;2023-02-12T07:12:24;101140.84;;;0.47;61.71
71149;BME280;59072;42.144;25.200;2023-02-12T07:14:49;101135.91;;;0.54;61.44
71149;BME280;59072;42.144;25.200;2023-02-12T07:17:15;101140.56;;;0.50;61.76
71149;BME280;59072;42.144;25.200;2023-02-12T07:19:43;101146.50;;;0.64;61.93
71149;BME280;59072;42.144;25.200;2023-02-12T07:22:08;101142.69;;;0.77;61.98
71149;BME280;59072;42.144;25.200;2023-02-12T07:24:33;101147.19;;;0.87;62.26
71149;BME280;59072;42.144;25.200;2023-02-12T07:26:59;101169.28;;;1.05;61.82
71149;BME280;59072;42.144;25.200;2023-02-12T07:29:24;101159.97;;;1.01;62.76
71149;BME280;59072;42.144;25.200;2023-02-12T07:31:50;101160.41;;;1.06;62.20
71149;BME280;59072;42.144;25.200;2023-02-12T07:34:15;101147.59;;;1.13;62.02
71149;BME280;59072;42.144;25.200;2023-02-12T07:36:41;101163.75;;;1.08;62.63
71149;BME280;59072;42.144;25.200;2023-02-12T07:39:06;101165.31;;;1.20;62.48
71149;BME280;59072;42.144;25.200;2023-02-12T07:41:34;101145.41;;;1.18;61.82
71149;BME280;59072;42.144;25.200;2023-02-12T07:44:06;101170.75;;;1.29;61.20
71149;BME280;59072;42.144;25.200;2023-02-12T07:46:35;101155.00;;;1.29;60.40
71149;BME280;59072;42.144;25.200;2023-02-12T07:49:03;101156.31;;;1.44;59.85
71149;BME280;59072;42.144;25.200;2023-02-12T07:51:30;101176.19;;;1.68;60.42
71149;BME280;59072;42.144;25.200;2023-02-12T07:53:57;101176.31;;;1.66;60.75
71149;BME280;59072;42.144;25.200;2023-02-12T07:56:25;101165.84;;;1.86;61.46
71149;BME280;59072;42.144;25.200;2023-02-12T07:58:55;101173.66;;;2.07;60.82
71149;BME280;59072;42.144;25.200;2023-02-12T08:01:31;101175.88;;;2.11;61.13
71149;BME280;59072;42.144;25.200;2023-02-12T08:03:58;101165.91;;;2.15;61.25
71149;BME280;59072;42.144;25.200;2023-02-12T08:06:27;101183.66;;;2.32;61.20
71149;BME280;59072;42.144;25.200;2023-02-12T08:08:55;101169.09;;;2.28;61.91
71149;BME280;59072;42.144;25.200;2023-02-12T08:11:22;101174.22;;;2.20;63.11
71149;BME280;59072;42.144;25.200;2023-02-12T08:13:47;101168.09;;;2.10;63.56
71149;BME280;59072;42.144;25.200;2023-02-12T08:16:18;101173.25;;;2.31;63.62
71149;BME280;59072;42.144;25.200;2023-02-12T08:18:44;101190.56;;;2.43;63.44
71149;BME280;59072;42.144;25.200;2023-02-12T08:21:16;101171.00;;;2.16;63.87
71149;BME280;59072;42.144;25.200;2023-02-12T08:23:43;101201.38;;;2.30;63.57
71149;BME280;59072;42.144;25.200;2023-02-12T08:28:34;101203.00;;;2.12;64.71
71149;BME280;59072;42.144;25.200;2023-02-12T08:31:01;101194.41;;;2.00;62.74
71149;BME280;59072;42.144;25.200;2023-02-12T08:33:27;101203.59;;;2.15;61.89
71149;BME280;59072;42.144;25.200;2023-02-12T08:36:23;101228.00;;;2.47;60.04
71149;BME280;59072;42.144;25.200;2023-02-12T08:38:49;101205.56;;;2.52;60.54
71149;BME280;59072;42.144;25.200;2023-02-12T08:41:17;101228.28;;;2.63;60.33
71149;BME280;59072;42.144;25.200;2023-02-12T08:43:43;101232.31;;;2.67;61.11
71149;BME280;59072;42.144;25.200;2023-02-12T08:46:13;101227.03;;;2.67;59.25
71149;BME280;59072;42.144;25.200;2023-02-12T08:48:40;101220.94;;;2.76;59.12
71149;BME280;59072;42.144;25.200;2023-02-12T08:53:31;101235.97;;;2.16;59.97
71149;BME280;59072;42.144;25.200;2023-02-12T08:55:57;101205.03;;;1.89;61.63
71149;BME280;59072;42.144;25.200;2023-02-12T08:58:25;101236.03;;;2.35;61.10
71149;BME280;59072;42.144;25.200;2023-02-12T09:00:52;101229.50;;;2.49;60.07
71149;BME280;59072;42.144;25.200;2023-02-12T09:03:18;101227.16;;;2.75;59.28
71149;BME280;59072;42.144;25.200;2023-02-12T09:05:43;101220.53;;;2.52;58.18
71149;BME280;59072;42.144;25.200;2023-02-12T09:08:11;101236.31;;;2.91;57.18
71149;BME280;59072;42.144;25.200;2023-02-12T09:10:43;101235.69;;;3.36;56.14
71149;BME280;59072;42.144;25.200;2023-02-12T09:13:11;101262.31;;;3.33;55.67
71149;BME280;59072;42.144;25.200;2023-02-12T09:15:42;101240.47;;;3.13;56.31
71149;BME280;59072;42.144;25.200;2023-02-12T09:18:09;101261.16;;;3.65;55.43
71149;BME280;59072;42.144;25.200;2023-02-12T09:20:40;101262.88;;;3.83;54.25
71149;BME280;59072;42.144;25.200;2023-02-12T09:23:07;101262.41;;;4.26;53.70
71149;BME280;59072;42.144;25.200;2023-02-12T09:25:33;101255.94;;;4.56;52.58
71149;BME280;59072;42.144;25.200;2023-02-12T09:28:03;101270.50;;;4.96;50.95
71149;BME280;59072;42.144;25.200;2023-02-12T09:30:28;101278.69;;;5.29;49.79
71149;BME280;59072;42.144;25.200;2023-02-12T09:32:54;101275.97;;;5.64;48.83
71149;BME280;59072;42.144;25.200;2023-02-12T09:35:21;101260.41;;;5.70;48.40
71149;BME280;59072;42.144;25.200;2023-02-12T09:37:46;101258.09;;;5.67;47.90
71149;BME280;59072;42.144;25.200;2023-02-12T09:45:29;101279.25;;;6.35;46.29
71149;BME280;59072;42.144;25.200;2023-02-12T09:50:51;101273.22;;;6.84;43.03
71149;BME280;59072;42.144;25.200;2023-02-12T09:53:20;101253.16;;;6.90;42.02
71149;BME280;59072;42.144;25.200;2023-02-12T09:55:47;101268.91;;;7.32;42.76
71149;BME280;59072;42.144;25.200;2023-02-12T09:58:22;101279.00;;;7.37;41.27
71149;BME280;59072;42.144;25.200;2023-02-12T10:00:51;101278.69;;;7.48;41.35
71149;BME280;59072;42.144;25.200;2023-02-12T10:03:17;101262.31;;;7.76;42.56
71149;BME280;59072;42.144;25.200;2023-02-12T10:05:47;101285.94;;;8.10;41.17
71149;BME280;59072;42.144;25.200;2023-02-12T10:14:09;101275.91;;;9.06;39.31
71149;BME280;59072;42.144;25.200;2023-02-12T10:17:02;101287.88;;;9.48;37.57
71149;BME280;59072;42.144;25.200;2023-02-12T10:20:20;101285.75;;;9.88;36.86
71149;BME280;59072;42.144;25.200;2023-02-12T10:27:48;101263.25;;;10.05;37.76
71149;BME280;59072;42.144;25.200;2023-02-12T10:33:04;101270.44;;;10.41;35.91
71149;BME280;59072;42.144;25.200;2023-02-12T10:35:32;101248.94;;;10.28;35.56
71149;BME280;59072;42.144;25.200;2023-02-12T10:38:29;101269.72;;;10.69;36.24
71149;BME280;59072;42.144;25.200;2023-02-12T10:41:03;101264.22;;;10.71;34.66
71149;BME280;59072;42.144;25.200;2023-02-12T10:43:29;101251.06;;;10.69;35.50
71149;BME280;59072;42.144;25.200;2023-02-12T10:45:55;101233.13;;;10.63;34.73
71149;BME280;59072;42.144;25.200;2023-02-12T10:48:32;101249.69;;;10.22;35.92
71149;BME280;59072;42.144;25.200;2023-02-12T10:53:40;101254.88;;;9.64;36.72
71149;BME280;59072;42.144;25.200;2023-02-12T11:01:26;101266.94;;;9.75;36.84
71149;BME280;59072;42.144;25.200;2023-02-12T11:03:53;101265.91;;;10.05;36.54
71149;BME280;59072;42.144;25.200;2023-02-12T11:06:22;101263.59;;;10.32;36.05
71149;BME280;59072;42.144;25.200;2023-02-12T11:08:51;101269.09;;;10.16;36.68
71149;BME280;59072;42.144;25.200;2023-02-12T11:11:22;101276.81;;;10.11;36.69
71149;BME280;59072;42.144;25.200;2023-02-12T11:14:03;101286.56;;;10.18;36.93
71149;BME280;59072;42.144;25.200;2023-02-12T11:16:34;101280.94;;;10.28;36.29
71149;BME280;59072;42.144;25.200;2023-02-12T11:19:18;101266.94;;;9.75;36.98
71149;BME280;59072;42.144;25.200;2023-02-12T11:21:44;101263.84;;;9.33;37.56
71149;BME280;59072;42.144;25.200;2023-02-12T11:26:46;101270.44;;;9.08;38.22
71149;BME280;59072;42.144;25.200;2023-02-12T11:29:22;101277.78;;;9.20;38.13
71149;BME280;59072;42.144;25.200;2023-02-12T11:32:03;101258.44;;;9.27;37.25
71149;BME280;59072;42.144;25.200;2023-02-12T11:34:29;101267.94;;;9.59;37.73
71149;BME280;59072;42.144;25.200;2023-02-12T11:36:55;101268.03;;;9.65;37.13
71149;BME280;59072;42.144;25.200;2023-02-12T11:39:33;101266.94;;;9.75;36.85
71149;BME280;59072;42.144;25.200;2023-02-12T11:42:04;101241.28;;;9.74;36.59
71149;BME280;59072;42.144;25.200;2023-02-12T11:44:37;101273.44;;;10.02;37.10
71149;BME280;59072;42.144;25.200;2023-02-12T11:47:09;101262.16;;;9.85;35.97
71149;BME280;59072;42.144;25.200;2023-02-12T11:49:51;101269.47;;;10.13;37.25
71149;BME280;59072;42.144;25.200;2023-02-12T11:52:27;101275.75;;;9.90;37.38
71149;BME280;59072;42.144;25.200;2023-02-12T11:54:59;101268.38;;;10.07;36.34
71149;BME280;59072;42.144;25.200;2023-02-12T11:57:48;101272.94;;;10.13;36.60
71149;BME280;59072;42.144;25.200;2023-02-12T12:00:21;101254.81;;;10.23;35.34
71149;BME280;59072;42.144;25.200;2023-02-12T12:02:54;101267.25;;;10.31;36.21
71149;BME280;59072;42.144;25.200;2023-02-12T12:05:26;101275.97;;;10.40;36.44
71149;BME280;59072;42.144;25.200;2023-02-12T12:07:57;101278.75;;;10.32;36.08
71149;BME280;59072;42.144;25.200;2023-02-12T12:10:28;101282.16;;;10.40;34.97
71149;BME280;59072;42.144;25.200;2023-02-12T12:12:58;101283.63;;;10.13;35.73
71149;BME280;59072;42.144;25.200;2023-02-12T12:15:32;101283.28;;;10.01;35.48
71149;BME280;59072;42.144;25.200;2023-02-12T12:21:44;101289.88;;;9.91;36.07
71149;BME280;59072;42.144;25.200;2023-02-12T12:26:39;101300.38;;;9.92;35.48
71149;BME280;59072;42.144;25.200;2023-02-12T12:29:16;101275.66;;;9.69;35.16
71149;BME280;59072;42.144;25.200;2023-02-12T12:31:47;101283.38;;;9.63;36.25
71149;BME280;59072;42.144;25.200;2023-02-12T12:34:18;101297.63;;;9.71;35.52
71149;BME280;59072;42.144;25.200;2023-02-12T12:37:14;101296.16;;;9.83;35.99
71149;BME280;59072;42.144;25.200;2023-02-12T12:40:22;101296.78;;;9.85;34.97
71149;BME280;59072;42.144;25.200;2023-02-12T12:43:24;101306.50;;;9.93;34.70
71149;BME280;59072;42.144;25.200;2023-02-12T12:46:09;101303.59;;;9.88;35.09
71149;BME280;59072;42.144;25.200;2023-02-12T12:51:21;101314.06;;;10.04;34.08
71149;BME280;59072;42.144;25.200;2023-02-12T12:53:54;101312.41;;;10.18;33.67
71149;BME280;59072;42.144;25.200;2023-02-12T13:05:47;101332.00;;;10.98;31.34
71149;BME280;59072;42.144;25.200;2023-02-12T13:08:40;101338.84;;;10.85;32.49
71149;BME280;59072;42.144;25.200;2023-02-12T13:16:59;101337.41;;;11.04;30.78
71149;BME280;59072;42.144;25.200;2023-02-12T13:25:46;101361.59;;;11.96;30.08
71149;BME280;59072;42.144;25.200;2023-02-12T13:31:18;101346.44;;;13.33;26.89
71149;BME280;59072;42.144;25.200;2023-02-12T13:33:54;101374.84;;;13.60;26.37
71149;BME280;59072;42.144;25.200;2023-02-12T13:36:20;101361.06;;;13.37;27.41
71149;BME280;59072;42.144;25.200;2023-02-12T13:39:07;101380.63;;;13.44;25.68
71149;BME280;59072;42.144;25.200;2023-02-12T13:41:35;101357.91;;;13.13;26.97
71149;BME280;59072;42.144;25.200;2023-02-12T13:44:06;101372.19;;;13.40;25.93
71149;BME280;59072;42.144;25.200;2023-02-12T13:49:55;101362.66;;;13.98;24.85
71149;BME280;59072;42.144;25.200;2023-02-12T13:55:20;101385.94;;;13.11;26.78
71149;BME280;59072;42.144;25.200;2023-02-12T14:03:27;101380.81;;;12.13;27.67
71149;BME280;59072;42.144;25.200;2023-02-12T14:08:52;101389.16;;;11.03;28.04
71149;BME280;59072;42.144;25.200;2023-02-12T14:11:31;101384.69;;;11.11;29.62
71149;BME280;59072;42.144;25.200;2023-02-12T14:13:59;101403.16;;;10.91;29.40
71149;BME280;59072;42.144;25.200;2023-02-12T14:21:57;101389.72;;;10.48;29.38
71149;BME280;59072;42.144;25.200;2023-02-12T14:24:50;101417.59;;;10.45;30.62
71149;BME280;59072;42.144;25.200;2023-02-12T14:27:31;101405.72;;;10.48;31.11
71149;BME280;59072;42.144;25.200;2023-02-12T14:38:00;101438.50;;;10.03;31.09
71149;BME280;59072;42.144;25.200;2023-02-12T14:42:56;101440.06;;;10.13;31.28
71149;BME280;59072;42.144;25.200;2023-02-12T14:45:33;101423.03;;;9.99;30.92
71149;BME280;59072;42.144;25.200;2023-02-12T14:48:02;101442.47;;;10.08;30.84
71149;BME280;59072;42.144;25.200;2023-02-12T14:50:34;101447.94;;;9.91;31.30
71149;BME280;59072;42.144;25.200;2023-02-12T14:53:12;101473.28;;;9.87;31.43
71149;BME280;59072;42.144;25.200;2023-02-12T14:55:46;101467.38;;;9.77;32.11
71149;BME280;59072;42.144;25.200;2023-02-12T14:58:19;101478.88;;;9.77;32.39
71149;BME280;59072;42.144;25.200;2023-02-12T15:00:49;101480.94;;;9.67;32.94
71149;BME280;59072;42.144;25.200;2023-02-12T15:03:19;101492.72;;;9.50;33.34
71149;BME280;59072;42.144;25.200;2023-02-12T15:06:00;101490.69;;;9.29;34.12
71149;BME280;59072;42.144;25.200;2023-02-12T15:08:31;101496.75;;;9.14;34.65
71149;BME280;59072;42.144;25.200;2023-02-12T15:11:25;101493.63;;;9.02;35.44
71149;BME280;59072;42.144;25.200;2023-02-12T15:18:55;101513.72;;;8.65;36.88
71149;BME280;59072;42.144;25.200;2023-02-12T15:21:25;101516.53;;;8.72;36.65
71149;BME280;59072;42.144;25.200;2023-02-12T15:24:09;101504.28;;;8.55;36.75
71149;BME280;59072;42.144;25.200;2023-02-12T15:26:39;101522.41;;;8.43;37.41
71149;BME280;59072;42.144;25.200;2023-02-12T15:29:12;101530.88;;;8.38;37.22